Time;durP1;ratioP1;P1;durP2;ratioP2;P2;SDS_P1;SDS_P2;PMS_P1;PMS_P2;Temp;Humidity;BMP_temperature;BMP_pressure;BME280_temperature;BME280_humidity;BME280_pressure;Samples;Min_cycle;Max_cycle;Signal;HPM_P1;HPM_P2
2023/05/01 00:04:42;;;;;;;;;;;22.20;53.60;;;;;;4746566;58;20318;-28
2023/05/01 00:09:43;;;;;;;;;;;22.20;53.50;;;;;;4746556;55;20286;-29
2023/05/01 00:14:44;;;;;;;;;;;22.20;53.50;;;;;;4746190;58;20053;-29
2023/05/01 00:19:44;;;;;;;;;;;22.20;53.50;;;;;;4757531;55;20064;-27
2023/05/01 00:24:47;;;;;;;;;;;22.20;53.50;;;;;;4746498;58;20088;-28
2023/05/01 00:29:49;;;;;;;;;;;22.20;53.60;;;;;;4853525;54;20314;-29
2023/05/01 00:34:52;;;;;;;;;;;22.20;53.50;;;;;;4746624;58;20362;-30
2023/05/01 00:39:53;;;;;;;;;;;22.20;53.50;;;;;;4774550;55;20641;-29
2023/05/01 00:44:53;;;;;;;;;;;22.20;53.50;;;;;;4779169;55;20068;-28
2023/05/01 00:49:54;;;;;;;;;;;22.20;53.50;;;;;;4777998;55;20479;-27
2023/05/01 00:54:55;;;;;;;;;;;22.20;53.50;;;;;;4813217;55;20077;-28
2023/05/01 00:59:56;;;;;;;;;;;22.20;53.50;;;;;;4746494;58;20072;-29
2023/05/01 01:05:00;;;;;;;;;;;22.20;53.50;;;;;;4775843;55;20115;-29
2023/05/01 01:11:26;;;;;;;;;;;22.20;53.50;;;;;;4955297;55;20127;-27
2023/05/01 01:16:31;;;;;;;;;;;22.20;53.50;;;;;;4746208;55;20080;-29
2023/05/01 01:21:38;;;;;;;;;;;22.20;53.50;;;;;;4756278;55;20283;-30
2023/05/01 01:27:18;;;;;;;;;;;22.20;53.50;;;;;;4746300;58;20072;-30
2023/05/01 01:32:37;;;;;;;;;;;22.20;53.50;;;;;;4746928;58;20295;-29
2023/05/01 01:37:43;;;;;;;;;;;22.20;53.50;;;;;;4752402;55;20303;-28
2023/05/01 01:42:56;;;;;;;;;;;22.20;53.50;;;;;;4781066;55;20132;-28
2023/05/01 01:47:58;;;;;;;;;;;22.20;53.50;;;;;;4797986;55;20135;-29
2023/05/01 01:53:00;;;;;;;;;;;22.20;53.50;;;;;;4774430;55;20322;-26
2023/05/01 01:58:02;;;;;;;;;;;22.20;53.50;;;;;;4772722;55;20124;-31
2023/05/01 02:03:04;;;;;;;;;;;22.20;53.50;;;;;;4790060;55;20067;-30
2023/05/01 02:08:07;;;;;;;;;;;22.20;53.50;;;;;;4776336;55;20294;-29
2023/05/01 02:13:08;;;;;;;;;;;22.20;53.50;;;;;;4793558;55;20113;-30
2023/05/01 02:18:09;;;;;;;;;;;22.10;53.40;;;;;;4978490;55;20113;-26
2023/05/01 02:23:10;;;;;;;;;;;22.20;53.40;;;;;;4768406;55;20161;-27
2023/05/01 02:28:12;;;;;;;;;;;22.10;53.40;;;;;;4753782;55;20121;-28
2023/05/01 02:33:13;;;;;;;;;;;22.20;53.40;;;;;;4808481;55;20279;-28
2023/05/01 02:38:15;;;;;;;;;;;22.10;53.30;;;;;;4745650;55;20313;-26
2023/05/01 02:43:17;;;;;;;;;;;22.10;53.40;;;;;;4746731;58;20372;-29
2023/05/01 02:48:20;;;;;;;;;;;22.10;53.30;;;;;;4824439;55;20330;-25
2023/05/01 02:53:21;;;;;;;;;;;22.10;53.30;;;;;;4789339;55;20061;-34
2023/05/01 02:58:22;;;;;;;;;;;22.10;53.30;;;;;;4945173;55;20060;-27
2023/05/01 03:03:23;;;;;;;;;;;22.10;53.30;;;;;;4746949;55;20411;-32
2023/05/01 03:08:23;;;;;;;;;;;22.10;53.30;;;;;;4805673;55;20120;-28
2023/05/01 03:13:24;;;;;;;;;;;22.10;53.30;;;;;;4773050;55;20473;-32
2023/05/01 03:18:25;;;;;;;;;;;22.10;53.30;;;;;;4745278;56;20412;-26
2023/05/01 03:23:26;;;;;;;;;;;22.10;53.30;;;;;;4789563;55;20485;-28
2023/05/01 03:28:27;;;;;;;;;;;22.10;53.30;;;;;;4768896;55;20409;-27
2023/05/01 03:33:28;;;;;;;;;;;22.10;53.30;;;;;;4761915;55;20286;-29
2023/05/01 03:38:29;;;;;;;;;;;22.10;53.20;;;;;;4745564;58;20423;-29
2023/05/01 03:43:30;;;;;;;;;;;22.10;53.20;;;;;;4746690;58;20072;-30
2023/05/01 03:48:31;;;;;;;;;;;22.10;53.30;;;;;;4772608;55;20283;-28
2023/05/01 03:53:32;;;;;;;;;;;22.10;53.20;;;;;;4842157;55;20064;-27
2023/05/01 03:58:32;;;;;;;;;;;22.10;53.80;;;;;;4745663;58;20397;-26
2023/05/01 04:03:33;;;;;;;;;;;22.10;53.20;;;;;;4774474;55;20060;-29
2023/05/01 04:08:34;;;;;;;;;;;22.10;53.20;;;;;;4791461;55;20065;-29
2023/05/01 04:13:34;;;;;;;;;;;22.10;53.30;;;;;;4817632;55;20121;-26
2023/05/01 04:18:35;;;;;;;;;;;22.10;53.20;;;;;;4745955;58;20053;-29
2023/05/01 04:23:35;;;;;;;;;;;22.10;53.10;;;;;;4746808;58;20125;-34
2023/05/01 04:28:36;;;;;;;;;;;22.10;53.10;;;;;;4788502;55;20116;-32
2023/05/01 04:33:37;;;;;;;;;;;22.10;53.10;;;;;;4751409;55;20072;-28
2023/05/01 04:38:38;;;;;;;;;;;22.10;53.10;;;;;;4895798;55;20084;-32
2023/05/01 04:43:38;;;;;;;;;;;22.10;53.10;;;;;;4779175;55;20109;-28
2023/05/01 04:48:39;;;;;;;;;;;22.10;53.70;;;;;;4769118;55;20377;-30
2023/05/01 04:53:40;;;;;;;;;;;22.10;53.10;;;;;;4799524;55;20327;-28
2023/05/01 04:58:41;;;;;;;;;;;22.10;53.10;;;;;;4745991;55;20072;-30
2023/05/01 05:03:41;;;;;;;;;;;22.10;53.10;;;;;;4746832;58;20295;-29
2023/05/01 05:08:42;;;;;;;;;;;22.10;53.10;;;;;;4775085;55;20064;-27
2023/05/01 05:13:43;;;;;;;;;;;22.10;53.10;;;;;;4764887;55;20295;-30
2023/05/01 05:18:44;;;;;;;;;;;22.10;53.00;;;;;;4783158;55;20164;-31
2023/05/01 05:23:44;;;;;;;;;;;22.10;53.10;;;;;;4746366;58;20121;-32
2023/05/01 05:28:45;;;;;;;;;;;22.10;53.00;;;;;;4767235;55;20072;-29
2023/05/01 05:33:46;;;;;;;;;;;22.10;53.00;;;;;;4746542;58;20113;-28
2023/05/01 05:38:46;;;;;;;;;;;22.10;53.50;;;;;;4881520;55;20366;-28
2023/05/01 05:43:47;;;;;;;;;;;22.10;53.00;;;;;;4769328;55;20112;-27
2023/05/01 05:48:48;;;;;;;;;;;22.10;53.70;;;;;;4746896;58;20319;-28
2023/05/01 05:53:48;;;;;;;;;;;22.10;53.00;;;;;;4821829;55;20076;-26
2023/05/01 05:58:49;;;;;;;;;;;22.10;53.00;;;;;;4756808;55;20381;-28
2023/05/01 06:03:50;;;;;;;;;;;22.00;53.00;;;;;;4981029;55;20185;-29
2023/05/01 06:08:50;;;;;;;;;;;22.00;52.90;;;;;;4746361;58;20084;-27
2023/05/01 06:13:51;;;;;;;;;;;22.10;53.00;;;;;;4787655;55;20350;-27
2023/05/01 06:18:52;;;;;;;;;;;22.10;53.00;;;;;;4759869;55;20068;-29
2023/05/01 06:23:52;;;;;;;;;;;22.00;52.90;;;;;;4755244;55;20068;-29
2023/05/01 06:28:56;;;;;;;;;;;22.10;53.00;;;;;;4745668;55;20334;-28
2023/05/01 06:33:56;;;;;;;;;;;22.10;53.00;;;;;;4776167;55;20387;-28
2023/05/01 06:38:57;;;;;;;;;;;22.00;52.90;;;;;;4780634;55;20072;-27
2023/05/01 06:43:58;;;;;;;;;;;22.00;52.90;;;;;;4754017;55;20141;-28
2023/05/01 06:48:59;;;;;;;;;;;22.00;52.90;;;;;;4762079;55;20298;-28
2023/05/01 06:53:59;;;;;;;;;;;22.00;52.90;;;;;;4761263;55;20088;-27
2023/05/01 06:59:00;;;;;;;;;;;22.00;52.90;;;;;;4769309;55;20323;-29
2023/05/01 07:04:00;;;;;;;;;;;22.00;52.80;;;;;;4752393;55;20125;-32
2023/05/01 07:09:02;;;;;;;;;;;22.00;52.90;;;;;;4790544;55;20385;-30
2023/05/01 07:14:03;;;;;;;;;;;22.00;52.90;;;;;;4746339;58;20677;-28
2023/05/01 07:19:03;;;;;;;;;;;22.00;52.90;;;;;;4764909;55;20158;-29
2023/05/01 07:24:05;;;;;;;;;;;22.00;52.90;;;;;;4789865;55;20072;-29
2023/05/01 07:29:05;;;;;;;;;;;22.00;52.90;;;;;;4809308;54;20123;-27
2023/05/01 07:34:06;;;;;;;;;;;22.00;52.90;;;;;;4762072;55;20311;-26
2023/05/01 07:39:07;;;;;;;;;;;22.00;52.90;;;;;;4775175;55;20116;-27
2023/05/01 07:44:07;;;;;;;;;;;22.00;52.90;;;;;;4815513;55;20072;-28
2023/05/01 07:49:08;;;;;;;;;;;22.10;52.90;;;;;;4845409;55;20378;-26
2023/05/01 07:54:09;;;;;;;;;;;22.00;52.90;;;;;;4746816;55;20345;-28
2023/05/01 07:59:10;;;;;;;;;;;22.00;52.90;;;;;;4783234;55;20069;-28
2023/05/01 08:04:10;;;;;;;;;;;22.00;52.90;;;;;;4786190;55;20080;-28
2023/05/01 08:09:11;;;;;;;;;;;22.00;53.00;;;;;;4862843;55;20108;-28
2023/05/01 08:14:12;;;;;;;;;;;22.10;53.00;;;;;;4770712;55;20104;-28
2023/05/01 08:19:12;;;;;;;;;;;22.00;52.90;;;;;;4773517;55;20288;-30
2023/05/01 08:24:13;;;;;;;;;;;22.00;52.90;;;;;;4765299;55;20103;-28
2023/05/01 08:29:13;;;;;;;;;;;22.00;53.00;;;;;;4771842;55;20069;-30
2023/05/01 08:34:16;;;;;;;;;;;22.00;53.00;;;;;;4815175;55;20133;-27
2023/05/01 08:39:16;;;;;;;;;;;22.00;53.00;;;;;;4818994;55;20072;-30
2023/05/01 08:44:21;;;;;;;;;;;22.00;53.00;;;;;;4748585;55;20359;-28
2023/05/01 08:49:23;;;;;;;;;;;22.00;53.00;;;;;;4821214;55;20305;-29
2023/05/01 08:54:23;;;;;;;;;;;22.00;53.00;;;;;;4804176;55;20111;-28
2023/05/01 08:59:27;;;;;;;;;;;22.00;53.00;;;;;;4745546;55;20136;-26
2023/05/01 09:04:31;;;;;;;;;;;22.00;53.00;;;;;;4748941;55;20726;-29
2023/05/01 09:09:32;;;;;;;;;;;22.00;53.00;;;;;;4791282;55;20276;-27
2023/05/01 09:14:32;;;;;;;;;;;22.00;53.00;;;;;;4746467;58;20076;-29
2023/05/01 09:19:33;;;;;;;;;;;22.00;53.10;;;;;;4796711;55;20108;-29
2023/05/01 09:24:34;;;;;;;;;;;22.00;53.00;;;;;;4746281;58;20319;-29
2023/05/01 09:29:46;;;;;;;;;;;22.00;53.00;;;;;;4962699;54;20303;-29
2023/05/01 09:34:48;;;;;;;;;;;22.00;53.00;;;;;;4746764;58;20373;-28
2023/05/01 09:39:59;;;;;;;;;;;22.00;53.10;;;;;;4746601;58;20302;-28
2023/05/01 09:45:00;;;;;;;;;;;22.00;53.10;;;;;;4773477;55;20068;-31
2023/05/01 09:50:01;;;;;;;;;;;22.00;53.10;;;;;;4767332;55;20064;-29
2023/05/01 09:55:20;;;;;;;;;;;22.00;53.70;;;;;;4767019;55;20076;-31
2023/05/01 10:00:20;;;;;;;;;;;22.00;53.00;;;;;;4878166;55;20112;-32
2023/05/01 10:05:22;;;;;;;;;;;22.00;53.10;;;;;;4758117;55;20156;-30
2023/05/01 10:10:23;;;;;;;;;;;22.00;53.10;;;;;;4765690;55;20331;-29
2023/05/01 10:15:34;;;;;;;;;;;22.00;53.10;;;;;;4746962;58;20157;-32
2023/05/01 10:20:35;;;;;;;;;;;22.00;53.20;;;;;;4746481;58;20080;-29
2023/05/01 10:25:36;;;;;;;;;;;22.00;53.10;;;;;;4746083;58;20299;-29
2023/05/01 10:30:37;;;;;;;;;;;22.00;53.10;;;;;;4759938;55;20362;-28
2023/05/01 10:35:39;;;;;;;;;;;22.10;53.20;;;;;;4760417;55;20084;-27
2023/05/01 10:40:44;;;;;;;;;;;22.00;53.10;;;;;;4748082;55;20108;-32
2023/05/01 10:45:45;;;;;;;;;;;22.00;53.10;;;;;;4873464;55;20385;-30
2023/05/01 10:51:05;;;;;;;;;;;22.00;53.70;;;;;;4746238;58;20311;-25
2023/05/01 10:59:38;;;;;;;;;;;22.00;53.10;;;;;;4850954;55;20129;-31
2023/05/01 11:04:47;;;;;;;;;;;22.10;53.10;;;;;;4789426;55;20998;-28
2023/05/01 11:09:52;;;;;;;;;;;22.00;53.10;;;;;;4746337;58;20306;-28
2023/05/01 11:15:03;;;;;;;;;;;22.00;53.10;;;;;;4793684;55;20357;-28
2023/05/01 11:20:04;;;;;;;;;;;22.00;53.10;;;;;;4791509;55;20343;-29
2023/05/01 11:25:21;;;;;;;;;;;22.00;53.10;;;;;;4780994;55;20443;-28
2023/05/01 11:30:22;;;;;;;;;;;22.10;53.10;;;;;;4859104;55;20064;-26
2023/05/01 11:35:26;;;;;;;;;;;22.00;53.10;;;;;;4853670;55;20068;-29
2023/05/01 11:40:28;;;;;;;;;;;22.00;53.10;;;;;;4791698;55;20109;-28
2023/05/01 11:45:29;;;;;;;;;;;22.00;53.10;;;;;;4746272;58;20052;-28
2023/05/01 11:50:36;;;;;;;;;;;22.10;53.20;;;;;;4817449;55;20061;-30
2023/05/01 11:55:37;;;;;;;;;;;22.00;53.80;;;;;;4790080;55;20068;-30
2023/05/01 12:00:40;;;;;;;;;;;22.10;53.20;;;;;;4746435;58;20359;-28
2023/05/01 12:05:42;;;;;;;;;;;22.00;53.20;;;;;;4783960;55;20164;-27
2023/05/01 12:10:43;;;;;;;;;;;22.00;53.20;;;;;;4749403;55;20175;-27
2023/05/01 12:15:45;;;;;;;;;;;22.00;53.10;;;;;;4816590;55;20295;-30
2023/05/01 12:20:50;;;;;;;;;;;22.10;53.20;;;;;;4782227;55;20072;-30
2023/05/01 12:25:52;;;;;;;;;;;22.10;53.20;;;;;;4766596;55;20343;-30
2023/05/01 12:30:56;;;;;;;;;;;22.10;53.20;;;;;;4746722;58;20346;-28
2023/05/01 12:36:07;;;;;;;;;;;22.00;53.10;;;;;;4768678;55;20299;-28
2023/05/01 12:41:10;;;;;;;;;;;22.10;53.20;;;;;;4762019;55;20131;-30
2023/05/01 12:46:13;;;;;;;;;;;22.10;53.30;;;;;;4809168;55;20347;-26
2023/05/01 12:51:20;;;;;;;;;;;22.10;53.20;;;;;;4797526;55;20068;-28
2023/05/01 12:56:22;;;;;;;;;;;22.10;53.20;;;;;;4746241;58;20072;-29
2023/05/01 13:01:25;;;;;;;;;;;22.10;53.20;;;;;;4762845;55;20693;-32
2023/05/01 13:06:35;;;;;;;;;;;22.10;53.20;;;;;;4746799;58;20565;-28
2023/05/01 13:11:36;;;;;;;;;;;22.10;53.20;;;;;;4836572;55;20366;-32
2023/05/01 13:16:53;;;;;;;;;;;22.10;53.20;;;;;;4746406;58;20112;-27
2023/05/01 13:21:56;;;;;;;;;;;22.10;53.20;;;;;;4825936;55;20104;-28
2023/05/01 13:27:00;;;;;;;;;;;22.00;53.20;;;;;;4770690;55;20076;-29
2023/05/01 13:32:03;;;;;;;;;;;22.10;53.30;;;;;;4746651;55;20324;-27
2023/05/01 13:37:03;;;;;;;;;;;22.10;53.30;;;;;;4840644;55;20060;-29
2023/05/01 13:42:05;;;;;;;;;;;22.10;53.30;;;;;;4791842;55;20354;-27
2023/05/01 13:47:05;;;;;;;;;;;22.10;53.30;;;;;;4816129;55;20347;-28
2023/05/01 13:52:06;;;;;;;;;;;22.10;53.20;;;;;;4759528;55;20060;-27
2023/05/01 13:57:07;;;;;;;;;;;22.10;53.30;;;;;;4842718;55;20136;-27
2023/05/01 14:02:41;;;;;;;;;;;22.10;53.30;;;;;;4838621;55;20073;-28
2023/05/01 14:07:54;;;;;;;;;;;22.10;53.30;;;;;;4799279;55;20084;-27
2023/05/01 14:12:56;;;;;;;;;;;22.10;53.30;;;;;;4855284;55;20131;-29
2023/05/01 14:17:59;;;;;;;;;;;22.10;53.30;;;;;;4761431;55;20363;-26
2023/05/01 14:23:00;;;;;;;;;;;22.10;53.30;;;;;;4817758;55;20299;-27
2023/05/01 14:28:04;;;;;;;;;;;22.10;53.30;;;;;;4778506;55;20072;-25
2023/05/01 14:33:08;;;;;;;;;;;22.10;53.40;;;;;;4746666;58;20068;-29
2023/05/01 14:38:13;;;;;;;;;;;22.10;53.30;;;;;;4745629;58;20076;-27
2023/05/01 14:43:18;;;;;;;;;;;22.10;53.30;;;;;;4795801;55;20064;-27
2023/05/01 14:48:34;;;;;;;;;;;22.10;53.30;;;;;;4762826;55;20132;-28
2023/05/01 14:53:34;;;;;;;;;;;22.10;53.30;;;;;;4773069;55;20084;-27
2023/05/01 14:58:35;;;;;;;;;;;22.10;53.40;;;;;;4795015;55;20112;-28
2023/05/01 15:03:39;;;;;;;;;;;22.10;53.30;;;;;;4746375;58;20383;-30
2023/05/01 15:08:40;;;;;;;;;;;22.10;53.30;;;;;;4746419;58;20391;-27
2023/05/01 15:13:43;;;;;;;;;;;22.10;53.30;;;;;;4759023;55;20121;-26
2023/05/01 15:18:43;;;;;;;;;;;22.10;53.30;;;;;;4843383;55;20299;-27
2023/05/01 15:23:44;;;;;;;;;;;22.10;53.30;;;;;;4746027;58;20069;-27
2023/05/01 15:28:45;;;;;;;;;;;22.10;53.40;;;;;;4745472;58;20339;-28
2023/05/01 15:33:46;;;;;;;;;;;22.10;53.30;;;;;;4758113;55;20129;-26
2023/05/01 15:38:47;;;;;;;;;;;22.10;53.40;;;;;;4745578;58;20131;-26
2023/05/01 15:43:47;;;;;;;;;;;22.10;53.40;;;;;;4773759;55;20113;-27
2023/05/01 15:48:49;;;;;;;;;;;22.10;53.40;;;;;;4792587;55;20092;-27
2023/05/01 15:53:53;;;;;;;;;;;22.10;53.30;;;;;;4833746;55;20364;-27
2023/05/01 15:58:53;;;;;;;;;;;22.10;53.40;;;;;;4812540;55;20361;-29
2023/05/01 16:03:54;;;;;;;;;;;22.10;53.30;;;;;;4746896;58;20326;-28
2023/05/01 16:08:56;;;;;;;;;;;22.10;53.40;;;;;;4754943;55;20068;-28
2023/05/01 16:13:56;;;;;;;;;;;22.10;53.40;;;;;;4770844;55;20897;-28
2023/05/01 16:18:58;;;;;;;;;;;22.10;53.40;;;;;;4788751;55;20299;-28
2023/05/01 16:24:00;;;;;;;;;;;22.10;53.40;;;;;;4818288;55;20052;-27
2023/05/01 16:29:04;;;;;;;;;;;22.10;53.40;;;;;;4765625;55;20310;-29
2023/05/01 16:34:05;;;;;;;;;;;22.10;53.40;;;;;;4778922;55;20314;-29
2023/05/01 16:39:07;;;;;;;;;;;22.10;53.40;;;;;;4745850;58;20351;-29
2023/05/01 16:44:08;;;;;;;;;;;22.10;53.40;;;;;;4810199;55;20327;-26
2023/05/01 16:49:10;;;;;;;;;;;22.10;53.40;;;;;;4810303;55;20144;-30
2023/05/01 16:54:10;;;;;;;;;;;22.10;53.40;;;;;;4801408;55;20322;-29
2023/05/01 16:59:11;;;;;;;;;;;22.10;53.40;;;;;;4745694;58;20112;-29
2023/05/01 17:04:12;;;;;;;;;;;22.10;53.50;;;;;;4771060;55;20108;-28
2023/05/01 17:09:13;;;;;;;;;;;22.10;53.40;;;;;;4772218;55;20072;-28
2023/05/01 17:14:13;;;;;;;;;;;22.10;53.40;;;;;;4746563;58;20382;-28
2023/05/01 17:19:14;;;;;;;;;;;22.10;53.40;;;;;;4805921;55;20052;-26
2023/05/01 17:24:15;;;;;;;;;;;22.10;53.40;;;;;;4823548;55;20386;-31
2023/05/01 17:29:15;;;;;;;;;;;22.10;53.40;;;;;;4791183;54;20131;-30
2023/05/01 17:34:16;;;;;;;;;;;22.10;53.40;;;;;;4746486;58;20405;-28
2023/05/01 17:39:17;;;;;;;;;;;22.10;53.40;;;;;;4841065;55;20526;-29
2023/05/01 17:44:18;;;;;;;;;;;22.10;53.40;;;;;;4767249;55;20347;-30
2023/05/01 17:49:19;;;;;;;;;;;22.10;53.40;;;;;;4771483;55;20314;-29
2023/05/01 17:54:20;;;;;;;;;;;22.10;53.40;;;;;;4766447;55;20290;-28
2023/05/01 17:59:21;;;;;;;;;;;22.10;53.40;;;;;;4767238;55;20108;-29
2023/05/01 18:04:21;;;;;;;;;;;22.10;53.40;;;;;;4940364;55;20068;-29
2023/05/01 18:09:22;;;;;;;;;;;22.10;53.30;;;;;;4803499;55;20287;-27
2023/05/01 18:14:23;;;;;;;;;;;22.10;53.30;;;;;;4768566;55;20140;-25
2023/05/01 18:19:24;;;;;;;;;;;22.10;53.30;;;;;;4745756;58;20330;-27
2023/05/01 18:24:25;;;;;;;;;;;22.10;53.40;;;;;;4803220;55;20137;-27
2023/05/01 18:29:26;;;;;;;;;;;22.10;53.30;;;;;;4946101;54;20191;-28
2023/05/01 18:34:27;;;;;;;;;;;22.10;53.30;;;;;;4761562;55;20069;-31
2023/05/01 18:39:27;;;;;;;;;;;22.10;53.30;;;;;;4754823;55;20109;-28
2023/05/01 18:44:28;;;;;;;;;;;22.10;53.30;;;;;;4773089;55;20267;-27
2023/05/01 18:49:28;;;;;;;;;;;22.10;53.40;;;;;;4869766;55;20065;-27
2023/05/01 18:54:30;;;;;;;;;;;22.10;53.30;;;;;;4757402;55;20387;-31
2023/05/01 18:59:30;;;;;;;;;;;22.10;53.30;;;;;;4846746;55;20088;-27
2023/05/01 19:04:36;;;;;;;;;;;22.10;53.40;;;;;;4823456;55;20068;-31
2023/05/01 19:09:36;;;;;;;;;;;22.10;53.30;;;;;;4776360;55;20113;-28
2023/05/01 19:14:37;;;;;;;;;;;22.10;53.30;;;;;;4746567;58;20121;-31
2023/05/01 19:19:38;;;;;;;;;;;22.10;53.40;;;;;;4771477;55;20137;-29
2023/05/01 19:24:39;;;;;;;;;;;22.10;53.30;;;;;;4746359;58;20282;-28
2023/05/01 19:29:39;;;;;;;;;;;22.10;53.30;;;;;;4800864;55;20315;-26
2023/05/01 19:34:40;;;;;;;;;;;22.10;53.40;;;;;;4790043;55;20108;-28
2023/05/01 19:39:41;;;;;;;;;;;22.10;53.30;;;;;;4751965;55;20179;-29
2023/05/01 19:44:41;;;;;;;;;;;22.10;53.40;;;;;;4821103;55;20128;-29
2023/05/01 19:49:43;;;;;;;;;;;22.10;53.40;;;;;;4746162;58;20388;-27
2023/05/01 19:54:44;;;;;;;;;;;22.10;53.40;;;;;;4746605;58;20339;-28
2023/05/01 19:59:47;;;;;;;;;;;22.10;53.40;;;;;;4821202;55;20132;-27
2023/05/01 20:04:47;;;;;;;;;;;22.10;53.40;;;;;;4805585;55;20116;-27
2023/05/01 20:09:48;;;;;;;;;;;22.10;53.40;;;;;;4801401;55;20112;-27
2023/05/01 20:14:50;;;;;;;;;;;22.00;53.40;;;;;;4770696;55;20104;-29
2023/05/01 20:19:51;;;;;;;;;;;22.10;53.40;;;;;;4820411;55;20331;-28
2023/05/01 20:24:51;;;;;;;;;;;22.00;53.40;;;;;;4897498;55;20063;-29
2023/05/01 20:29:52;;;;;;;;;;;22.10;53.50;;;;;;4769901;55;20295;-27
2023/05/01 20:34:56;;;;;;;;;;;22.10;53.40;;;;;;4810315;55;20101;-28
2023/05/01 20:39:57;;;;;;;;;;;22.10;53.40;;;;;;4771979;55;20303;-31
2023/05/01 20:44:58;;;;;;;;;;;22.10;53.40;;;;;;4746220;58;20104;-31
2023/05/01 20:49:58;;;;;;;;;;;22.10;53.40;;;;;;4833222;55;20343;-27
2023/05/01 20:54:59;;;;;;;;;;;22.00;53.40;;;;;;4783491;55;20056;-29
2023/05/01 21:00:00;;;;;;;;;;;22.00;53.40;;;;;;4771616;55;20190;-27
2023/05/01 21:05:01;;;;;;;;;;;22.00;53.50;;;;;;4746820;58;20299;-28
2023/05/01 21:10:03;;;;;;;;;;;22.10;53.50;;;;;;4783099;55;20064;-28
2023/05/01 21:15:04;;;;;;;;;;;22.10;53.50;;;;;;4811040;55;20115;-27
2023/05/01 21:20:14;;;;;;;;;;;22.00;53.50;;;;;;4745444;58;20105;-27
2023/05/01 21:25:20;;;;;;;;;;;22.00;53.50;;;;;;4746619;55;20108;-29
2023/05/01 21:30:32;;;;;;;;;;;22.00;53.50;;;;;;4798146;55;20324;-27
2023/05/01 21:35:32;;;;;;;;;;;22.10;53.50;;;;;;4844444;55;20347;-28
2023/05/01 21:40:37;;;;;;;;;;;22.00;53.50;;;;;;4911509;55;20076;-32
2023/05/01 21:45:41;;;;;;;;;;;22.10;53.60;;;;;;4981767;55;20248;-27
2023/05/01 21:50:42;;;;;;;;;;;22.10;53.60;;;;;;4795097;55;20076;-28
2023/05/01 21:55:44;;;;;;;;;;;22.00;53.50;;;;;;4791988;55;20104;-27
2023/05/01 22:00:45;;;;;;;;;;;22.00;53.60;;;;;;4746467;55;20068;-27
2023/05/01 22:05:45;;;;;;;;;;;22.10;53.70;;;;;;4746513;58;20072;-28
2023/05/01 22:10:49;;;;;;;;;;;22.10;53.60;;;;;;4746450;56;20056;-27
2023/05/01 22:15:49;;;;;;;;;;;22.00;53.60;;;;;;4748857;55;20068;-27
2023/05/01 22:20:50;;;;;;;;;;;22.00;53.60;;;;;;4793086;55;20351;-26
2023/05/01 22:25:58;;;;;;;;;;;22.00;53.70;;;;;;4767497;55;20341;-31
2023/05/01 22:30:58;;;;;;;;;;;22.00;53.70;;;;;;4862316;55;20331;-28
2023/05/01 22:35:59;;;;;;;;;;;22.00;53.70;;;;;;4840527;55;20120;-30
2023/05/01 22:41:00;;;;;;;;;;;22.00;53.70;;;;;;4763881;55;20309;-29
2023/05/01 22:46:00;;;;;;;;;;;22.00;53.70;;;;;;4755758;55;20199;-31
2023/05/01 22:51:01;;;;;;;;;;;22.00;53.70;;;;;;4746261;58;20060;-25
2023/05/01 22:56:02;;;;;;;;;;;22.10;53.80;;;;;;4782476;55;20064;-27
2023/05/01 23:01:03;;;;;;;;;;;22.00;53.80;;;;;;4782155;55;20322;-28
2023/05/01 23:06:04;;;;;;;;;;;22.00;53.70;;;;;;4746179;58;20092;-26
2023/05/01 23:11:05;;;;;;;;;;;22.00;53.90;;;;;;4824133;55;20359;-26
2023/05/01 23:16:06;;;;;;;;;;;22.00;53.80;;;;;;4807477;55;20125;-27
2023/05/01 23:21:08;;;;;;;;;;;22.00;53.80;;;;;;4790709;55;20113;-25
2023/05/01 23:26:22;;;;;;;;;;;22.10;53.80;;;;;;4746358;58;20069;-27
2023/05/01 23:31:24;;;;;;;;;;;22.00;53.80;;;;;;4804081;55;20064;-28
2023/05/01 23:36:26;;;;;;;;;;;22.00;53.80;;;;;;4872787;55;20347;-26
2023/05/01 23:41:27;;;;;;;;;;;22.00;53.80;;;;;;4762648;55;20302;-26
2023/05/01 23:46:29;;;;;;;;;;;22.10;53.90;;;;;;4746332;58;20112;-30
2023/05/01 23:51:30;;;;;;;;;;;22.00;53.80;;;;;;4746213;58;20385;-29
2023/05/01 23:56:31;;;;;;;;;;;22.00;53.90;;;;;;4770691;55;20362;-30
